createdAt,value
2017-04-02T00:00:15.006Z,18.12
2017-04-02T00:00:43.250Z,18.13
2017-04-02T00:01:54.507Z,18.15
2017-04-02T00:02:22.744Z,18.12
2017-04-02T00:02:50.994Z,18.12
2017-04-02T00:03:19.211Z,18.13
2017-04-02T00:03:47.415Z,18.12
2017-04-02T00:04:15.456Z,18.13
2017-04-02T00:04:43.668Z,18.15
2017-04-02T00:05:11.804Z,18.17
2017-04-02T00:05:40.147Z,18.17
2017-04-02T00:06:08.295Z,18.17
2017-04-02T00:06:36.551Z,18.13
2017-04-02T00:07:47.811Z,18.15
2017-04-02T00:08:16.110Z,18.13
2017-04-02T00:08:44.350Z,18.17
2017-04-02T00:09:12.598Z,18.08
2017-04-02T00:09:41.029Z,18.17
2017-04-02T00:10:09.303Z,18.13
2017-04-02T00:10:37.641Z,18.17
2017-04-02T00:11:05.874Z,18.12
2017-04-02T00:11:34.415Z,18.13
2017-04-02T00:12:02.688Z,18.18
2017-04-02T00:12:30.923Z,18.2
2017-04-02T00:13:42.088Z,18.09
2017-04-02T00:14:10.427Z,18.12
2017-04-02T00:14:38.769Z,18.12
2017-04-02T00:15:07.100Z,18.11
2017-04-02T00:15:35.482Z,18.15
2017-04-02T00:16:03.640Z,18.17
2017-04-02T00:16:31.960Z,18.12
2017-04-02T00:17:00.192Z,18.11
2017-04-02T00:17:28.624Z,18.17
2017-04-02T00:17:56.869Z,18.13
2017-04-02T00:18:25.206Z,18.13
2017-04-02T00:19:36.463Z,18.13
2017-04-02T00:20:04.692Z,18.17
2017-04-02T00:20:32.935Z,18.18
2017-04-02T00:21:01.164Z,18.18
2017-04-02T00:21:29.552Z,18.11
2017-04-02T00:21:57.709Z,18.15
2017-04-02T00:22:25.927Z,18.11
2017-04-02T00:22:54.155Z,18.18
2017-04-02T00:23:22.601Z,18.13
2017-04-02T00:23:50.861Z,18.11
2017-04-02T00:24:19.110Z,18.11
2017-04-02T00:25:30.271Z,18.11
2017-04-02T00:25:58.613Z,18.13
2017-04-02T00:26:26.764Z,18.12
2017-04-02T00:26:55.195Z,18.15
2017-04-02T00:27:23.487Z,18.17
2017-04-02T00:27:51.640Z,18.15
2017-04-02T00:28:20.388Z,18.11
2017-04-02T00:28:48.615Z,18.13
2017-04-02T00:29:16.865Z,18.2
2017-04-02T00:29:45.214Z,18.17
2017-04-02T00:30:13.374Z,18.15
2017-04-02T00:31:24.722Z,18.15
2017-04-02T00:31:52.971Z,18.17
2017-04-02T00:32:21.256Z,18.21
2017-04-02T00:32:49.290Z,18.2
2017-04-02T00:33:17.596Z,18.23
2017-04-02T00:33:45.844Z,18.18
2017-04-02T00:34:14.039Z,18.17
2017-04-02T00:34:42.285Z,18.17
2017-04-02T00:35:10.729Z,18.24
2017-04-02T00:35:38.886Z,18.28
2017-04-02T00:36:07.139Z,18.18
2017-04-02T00:37:18.304Z,18.18
2017-04-02T00:37:46.636Z,18.18
2017-04-02T00:38:14.974Z,18.3
2017-04-02T00:38:43.196Z,18.2
2017-04-02T00:39:11.488Z,18.23
2017-04-02T00:39:39.665Z,18.18
2017-04-02T00:40:07.965Z,18.17
2017-04-02T00:40:36.290Z,18.24
2017-04-02T00:41:04.694Z,18.23
2017-04-02T00:41:33.041Z,18.26
2017-04-02T00:42:01.376Z,18.26
2017-04-02T00:43:12.725Z,18.13
2017-04-02T00:43:41.070Z,18.15
2017-04-02T00:44:09.220Z,18.26
2017-04-02T00:44:37.544Z,18.21
2017-04-02T00:45:05.932Z,18.2
2017-04-02T00:45:33.991Z,18.17
2017-04-02T00:46:02.292Z,18.21
2017-04-02T00:46:30.623Z,18.11
2017-04-02T00:46:59.058Z,18.18
2017-04-02T00:47:27.409Z,18.13
2017-04-02T00:47:55.608Z,18.11
2017-04-02T00:49:06.847Z,18.26
2017-04-02T00:49:35.044Z,18.24
2017-04-02T00:50:04.155Z,18.2
2017-04-02T00:50:32.296Z,18.15
2017-04-02T00:51:01.012Z,18.17
2017-04-02T00:51:29.248Z,18.17
2017-04-02T00:51:57.642Z,18.17
2017-04-02T00:52:25.964Z,18.18
2017-04-02T00:52:54.399Z,18.24
2017-04-02T00:53:22.753Z,18.15
2017-04-02T00:53:51.100Z,18.17
2017-04-02T00:55:02.359Z,18.2
2017-04-02T00:55:30.714Z,18.18
2017-04-02T00:55:58.966Z,18.2
2017-04-02T00:56:27.199Z,18.15
2017-04-02T00:56:55.597Z,18.18
2017-04-02T00:57:23.775Z,18.24
2017-04-02T00:57:52.070Z,18.21
2017-04-02T00:58:20.306Z,18.12
2017-04-02T00:58:48.628Z,18.12
2017-04-02T00:59:16.883Z,18.12
2017-04-02T00:59:45.151Z,18.18
2017-04-02T01:00:56.412Z,18.09
2017-04-02T01:01:24.574Z,18.13
2017-04-02T01:01:52.731Z,18.05
2017-04-02T01:02:21.063Z,18.2
2017-04-02T01:02:49.469Z,18.13
2017-04-02T01:03:17.831Z,18.15
2017-04-02T01:03:46.271Z,18.13
2017-04-02T01:04:14.538Z,18.12
2017-04-02T01:04:42.970Z,18.13
2017-04-02T01:05:11.047Z,18.13
2017-04-02T01:05:39.254Z,18.15
2017-04-02T01:06:50.565Z,18.2
2017-04-02T01:07:18.842Z,18.09
2017-04-02T01:07:47.314Z,18.12
2017-04-02T01:08:15.538Z,18.17
2017-04-02T01:08:43.861Z,18.12
2017-04-02T01:09:12.199Z,18.15
2017-04-02T01:09:40.441Z,18.13
2017-04-02T01:10:08.773Z,18.15
2017-04-02T01:10:37.216Z,18.11
2017-04-02T01:11:05.491Z,18.13
2017-04-02T01:11:33.743Z,18.13
2017-04-02T01:12:45.093Z,18.11
2017-04-02T01:13:13.429Z,18.18
2017-04-02T01:13:41.588Z,18.2
2017-04-02T01:14:09.821Z,18.18
2017-04-02T01:14:38.039Z,18.15
2017-04-02T01:15:06.384Z,18.17
2017-04-02T01:15:34.831Z,18.18
2017-04-02T01:16:03.157Z,18.2
2017-04-02T01:16:31.541Z,18.11
2017-04-02T01:16:59.827Z,18.11
2017-04-02T01:17:28.188Z,18.12
2017-04-02T01:18:39.364Z,18.15
2017-04-02T01:19:07.732Z,18.15
2017-04-02T01:19:36.078Z,18.05
2017-04-02T01:20:04.315Z,18.12
2017-04-02T01:20:32.642Z,18.17
2017-04-02T01:21:00.987Z,18.11
2017-04-02T01:21:29.202Z,18.13
2017-04-02T01:21:57.530Z,18.11
2017-04-02T01:22:25.969Z,18.11
2017-04-02T01:22:54.134Z,18.11
2017-04-02T01:23:22.481Z,18.18
2017-04-02T01:24:33.831Z,18.13
2017-04-02T01:25:02.130Z,18.15
2017-04-02T01:25:30.489Z,18.12
2017-04-02T01:25:58.866Z,18.09
2017-04-02T01:26:27.187Z,18.01
2017-04-02T01:26:55.445Z,18.06
2017-04-02T01:27:23.815Z,18.13
2017-04-02T01:27:52.019Z,18.03
2017-04-02T01:28:20.518Z,18.09
2017-04-02T01:28:48.794Z,18.15
2017-04-02T01:29:17.075Z,18.18
2017-04-02T01:30:28.235Z,18.18
2017-04-02T01:30:56.613Z,18.12
2017-04-02T01:31:24.961Z,18.08
2017-04-02T01:31:53.302Z,18.11
2017-04-02T01:32:21.619Z,18.11
2017-04-02T01:32:49.896Z,18.12
2017-04-02T01:33:18.336Z,17.99
2017-04-02T01:33:46.390Z,18.01
2017-04-02T01:34:14.874Z,18.01
2017-04-02T01:34:43.169Z,17.9
2017-04-02T01:35:11.749Z,17.94
2017-04-02T01:36:23.003Z,17.91
2017-04-02T01:36:51.337Z,17.86
2017-04-02T01:37:19.688Z,17.9
2017-04-02T01:37:47.934Z,17.97
2017-04-02T01:38:16.101Z,17.9
2017-04-02T01:38:44.698Z,17.87
2017-04-02T01:39:12.952Z,17.9
2017-04-02T01:39:41.275Z,17.86
2017-04-02T01:40:09.724Z,17.81
2017-04-02T01:40:38.099Z,17.84
2017-04-02T01:41:07.216Z,17.86
2017-04-02T01:42:18.399Z,17.76
2017-04-02T01:42:46.576Z,17.81
2017-04-02T01:43:14.825Z,17.71
2017-04-02T01:43:43.153Z,17.83
2017-04-02T01:44:11.589Z,17.75
2017-04-02T01:44:39.870Z,17.65
2017-04-02T01:45:08.178Z,17.73
2017-04-02T01:45:36.407Z,17.66
2017-04-02T01:46:04.750Z,17.59
2017-04-02T01:46:33.016Z,17.72
2017-04-02T01:47:01.298Z,17.72
2017-04-02T01:48:12.555Z,17.69
2017-04-02T01:48:40.889Z,17.66
2017-04-02T01:49:09.365Z,17.59
2017-04-02T01:49:37.553Z,17.66
2017-04-02T01:50:05.960Z,17.63
2017-04-02T01:50:34.304Z,17.69
2017-04-02T01:51:02.733Z,17.66
2017-04-02T01:51:30.963Z,17.66
2017-04-02T01:51:59.443Z,17.69
2017-04-02T01:52:27.803Z,17.66
2017-04-02T01:52:56.065Z,17.66
2017-04-02T01:54:07.226Z,17.68
2017-04-02T01:54:35.578Z,17.71
2017-04-02T01:55:03.928Z,17.66
2017-04-02T01:55:32.065Z,17.63
2017-04-02T01:56:00.465Z,17.63
2017-04-02T01:56:28.627Z,17.57
2017-04-02T01:56:56.965Z,17.68
2017-04-02T01:57:25.011Z,17.69
2017-04-02T01:57:53.254Z,17.65
2017-04-02T01:58:21.599Z,17.69
2017-04-02T01:58:49.962Z,17.66
2017-04-02T02:00:01.139Z,17.68
2017-04-02T02:00:29.404Z,17.62
2017-04-02T02:00:57.575Z,17.71
2017-04-02T02:01:25.901Z,17.76
2017-04-02T02:01:54.211Z,17.59
2017-04-02T02:02:22.384Z,17.71
2017-04-02T02:02:50.809Z,17.65
2017-04-02T02:03:19.142Z,17.65
2017-04-02T02:03:47.569Z,17.68
2017-04-02T02:04:15.651Z,17.71
2017-04-02T02:04:43.928Z,17.69
2017-04-02T02:05:55.183Z,17.69
2017-04-02T02:06:23.833Z,17.69
2017-04-02T02:06:52.083Z,17.65
2017-04-02T02:07:20.419Z,17.71
2017-04-02T02:07:48.674Z,17.69
2017-04-02T02:08:16.938Z,17.68
2017-04-02T02:08:45.199Z,17.71
2017-04-02T02:09:13.341Z,17.72
2017-04-02T02:09:41.636Z,17.71
2017-04-02T02:10:10.010Z,17.69
2017-04-02T02:10:38.366Z,17.72
2017-04-02T02:11:49.532Z,17.72
2017-04-02T02:12:17.952Z,17.71
2017-04-02T02:12:46.219Z,17.68
2017-04-02T02:13:14.567Z,17.71
2017-04-02T02:13:42.751Z,17.69
2017-04-02T02:14:10.932Z,17.69
2017-04-02T02:14:39.302Z,17.76
2017-04-02T02:15:07.471Z,17.71
2017-04-02T02:15:35.842Z,17.72
2017-04-02T02:16:04.175Z,17.73
2017-04-02T02:16:32.336Z,17.71
2017-04-02T02:17:43.594Z,17.71
2017-04-02T02:18:11.892Z,17.71
2017-04-02T02:18:40.061Z,17.73
2017-04-02T02:19:08.327Z,17.71
2017-04-02T02:19:36.727Z,17.72
2017-04-02T02:20:04.982Z,17.69
2017-04-02T02:20:33.255Z,17.79
2017-04-02T02:21:01.394Z,17.69
2017-04-02T02:21:29.790Z,17.73
2017-04-02T02:21:58.071Z,17.72
2017-04-02T02:22:26.416Z,17.65
2017-04-02T02:23:37.768Z,17.76
2017-04-02T02:24:05.930Z,17.79
2017-04-02T02:24:34.170Z,17.73
2017-04-02T02:25:02.440Z,17.72
2017-04-02T02:25:30.773Z,17.71
2017-04-02T02:25:59.015Z,17.71
2017-04-02T02:26:27.331Z,17.66
2017-04-02T02:26:55.561Z,17.71
2017-04-02T02:27:23.906Z,17.71
2017-04-02T02:27:52.182Z,17.71
2017-04-02T02:28:20.533Z,17.63
2017-04-02T02:29:31.598Z,17.69
2017-04-02T02:29:59.936Z,17.68
2017-04-02T02:30:28.266Z,17.66
2017-04-02T02:30:56.398Z,17.65
2017-04-02T02:31:24.607Z,17.72
2017-04-02T02:31:52.859Z,17.72
2017-04-02T02:32:20.961Z,17.73
2017-04-02T02:32:49.188Z,17.72
2017-04-02T02:33:17.627Z,17.72
2017-04-02T02:33:45.781Z,17.72
2017-04-02T02:34:14.133Z,17.72
2017-04-02T02:35:25.396Z,17.65
2017-04-02T02:35:53.713Z,17.71
2017-04-02T02:36:21.967Z,17.69
2017-04-02T02:36:50.087Z,17.72
2017-04-02T02:37:18.377Z,17.68
2017-04-02T02:37:46.717Z,17.66
2017-04-02T02:38:15.356Z,17.75
2017-04-02T02:38:43.590Z,17.78
2017-04-02T02:39:12.018Z,17.73
2017-04-02T02:39:40.369Z,17.78
2017-04-02T02:40:08.621Z,17.75
2017-04-02T02:41:19.878Z,17.81
2017-04-02T02:41:48.125Z,17.75
2017-04-02T02:42:16.467Z,17.62
2017-04-02T02:42:44.770Z,17.66
2017-04-02T02:43:13.146Z,17.83
2017-04-02T02:43:41.377Z,17.75
2017-04-02T02:44:09.588Z,17.78
2017-04-02T02:44:37.815Z,17.72
2017-04-02T02:45:06.137Z,17.75
2017-04-02T02:45:34.392Z,17.72
2017-04-02T02:46:02.734Z,17.81
2017-04-02T02:47:13.803Z,17.78
2017-04-02T02:47:42.134Z,17.73
2017-04-02T02:48:10.471Z,17.76
2017-04-02T02:48:38.779Z,17.68
2017-04-02T02:49:07.076Z,17.76
2017-04-02T02:49:35.324Z,17.71
2017-04-02T02:50:03.724Z,17.76
2017-04-02T02:50:31.765Z,17.84
2017-04-02T02:51:00.197Z,17.76
2017-04-02T02:51:28.538Z,17.81
2017-04-02T02:51:56.901Z,17.69
2017-04-02T02:53:07.891Z,17.81
2017-04-02T02:53:36.226Z,17.81
2017-04-02T02:54:04.557Z,17.71
2017-04-02T02:54:32.862Z,17.78
2017-04-02T02:55:01.148Z,17.75
2017-04-02T02:55:29.392Z,17.86
2017-04-02T02:55:57.784Z,17.73
2017-04-02T02:56:26.019Z,17.72
2017-04-02T02:56:54.340Z,17.59
2017-04-02T02:57:22.399Z,17.72
2017-04-02T02:57:50.734Z,17.76
2017-04-02T02:59:01.902Z,17.66
2017-04-02T02:59:30.139Z,17.69
2017-04-02T02:59:58.382Z,17.69
2017-04-02T03:00:26.696Z,17.57
2017-04-02T03:00:55.064Z,17.65
2017-04-02T03:01:23.394Z,17.68
2017-04-02T03:01:51.614Z,17.68
2017-04-02T03:02:19.845Z,17.65
2017-04-02T03:02:48.265Z,17.68
2017-04-02T03:03:16.522Z,17.68
2017-04-02T03:03:44.864Z,17.65
2017-04-02T03:04:56.120Z,17.63
2017-04-02T03:05:24.458Z,17.65
2017-04-02T03:05:52.691Z,17.68
2017-04-02T03:06:20.914Z,17.66
2017-04-02T03:06:49.305Z,17.59
2017-04-02T03:07:17.370Z,17.78
2017-04-02T03:07:45.675Z,17.59
2017-04-02T03:08:13.850Z,17.69
2017-04-02T03:08:42.289Z,17.69
2017-04-02T03:09:10.537Z,17.66
2017-04-02T03:09:38.887Z,17.72
2017-04-02T03:10:50.048Z,17.66
2017-04-02T03:11:18.281Z,17.68
2017-04-02T03:11:46.612Z,17.69
2017-04-02T03:12:14.823Z,17.66
2017-04-02T03:12:43.031Z,17.69
2017-04-02T03:13:11.274Z,17.69
2017-04-02T03:13:39.550Z,17.75
2017-04-02T03:14:07.875Z,17.66
2017-04-02T03:14:36.189Z,17.66
2017-04-02T03:15:04.528Z,17.65
2017-04-02T03:15:32.864Z,17.69
2017-04-02T03:16:44.021Z,17.59
2017-04-02T03:17:12.359Z,17.66
2017-04-02T03:17:40.697Z,17.69
2017-04-02T03:18:08.995Z,17.73
2017-04-02T03:18:37.379Z,17.68
2017-04-02T03:19:05.699Z,17.68
2017-04-02T03:19:34.083Z,17.72
2017-04-02T03:20:02.315Z,17.65
2017-04-02T03:20:30.738Z,17.69
2017-04-02T03:20:59.071Z,17.71
2017-04-02T03:21:27.311Z,17.72
2017-04-02T03:22:38.570Z,17.65
2017-04-02T03:23:06.795Z,17.66
2017-04-02T03:23:35.134Z,17.71
2017-04-02T03:24:03.430Z,17.68
2017-04-02T03:24:31.852Z,17.71
2017-04-02T03:25:00.054Z,17.65
2017-04-02T03:25:28.234Z,17.66
2017-04-02T03:25:56.467Z,17.65
2017-04-02T03:26:24.742Z,17.59
2017-04-02T03:26:52.892Z,17.78
2017-04-02T03:27:21.113Z,17.69
2017-04-02T03:28:32.277Z,17.72
2017-04-02T03:29:00.408Z,17.66
2017-04-02T03:29:28.639Z,17.69
2017-04-02T03:29:56.927Z,17.72
2017-04-02T03:30:25.287Z,17.66
2017-04-02T03:30:53.509Z,17.69
2017-04-02T03:31:21.870Z,17.59
2017-04-02T03:31:50.102Z,17.69
2017-04-02T03:32:18.499Z,17.65
2017-04-02T03:32:46.648Z,17.69
2017-04-02T03:33:14.895Z,17.69
2017-04-02T03:34:26.058Z,17.63
2017-04-02T03:34:54.240Z,17.69
2017-04-02T03:35:22.574Z,17.66
2017-04-02T03:35:50.773Z,17.68
2017-04-02T03:36:19.111Z,17.68
2017-04-02T03:36:47.421Z,17.72
2017-04-02T03:37:15.768Z,17.66
2017-04-02T03:37:43.907Z,17.69
2017-04-02T03:38:12.239Z,17.62
2017-04-02T03:38:40.455Z,17.65
2017-04-02T03:39:08.683Z,17.66
2017-04-02T03:40:19.941Z,17.68
2017-04-02T03:40:48.223Z,17.68
2017-04-02T03:41:16.459Z,17.57
2017-04-02T03:41:44.543Z,17.57
2017-04-02T03:42:12.912Z,17.5
2017-04-02T03:42:41.123Z,17.59
2017-04-02T03:43:09.457Z,17.52
2017-04-02T03:43:37.685Z,17.46
2017-04-02T03:44:05.916Z,17.41
2017-04-02T03:44:34.037Z,17.52
2017-04-02T03:45:02.351Z,17.5
2017-04-02T03:46:13.857Z,17.47
2017-04-02T03:46:42.141Z,17.47
2017-04-02T03:47:10.372Z,17.49
2017-04-02T03:47:38.470Z,17.41
2017-04-02T03:48:07.030Z,17.46
2017-04-02T03:48:35.152Z,17.52
2017-04-02T03:49:03.392Z,17.39
2017-04-02T03:49:31.437Z,17.38
2017-04-02T03:49:59.755Z,17.43
2017-04-02T03:50:28.058Z,17.39
2017-04-02T03:50:56.366Z,17.34
2017-04-02T03:52:07.716Z,17.37
2017-04-02T03:52:35.896Z,17.34
2017-04-02T03:53:04.226Z,17.28
2017-04-02T03:53:32.492Z,17.31
2017-04-02T03:54:01.158Z,17.35
2017-04-02T03:54:29.278Z,17.3
2017-04-02T03:54:57.518Z,17.34
2017-04-02T03:55:25.659Z,17.31
2017-04-02T03:55:53.889Z,17.28
2017-04-02T03:56:22.110Z,17.24
2017-04-02T03:56:50.234Z,17.28
2017-04-02T03:58:01.395Z,17.31
2017-04-02T03:58:29.482Z,17.28
2017-04-02T03:58:57.808Z,17.27
2017-04-02T03:59:26.078Z,17.24
2017-04-02T03:59:54.402Z,17.3
2017-04-02T04:00:22.709Z,17.27
2017-04-02T04:00:50.849Z,17.34
2017-04-02T04:01:19.079Z,17.35
2017-04-02T04:01:47.309Z,17.3
2017-04-02T04:02:15.516Z,17.34
2017-04-02T04:02:43.827Z,17.35
2017-04-02T04:03:54.898Z,17.31
2017-04-02T04:04:23.169Z,17.25
2017-04-02T04:04:51.491Z,17.31
2017-04-02T04:05:19.569Z,17.31
2017-04-02T04:05:47.710Z,17.31
2017-04-02T04:06:16.013Z,17.34
2017-04-02T04:06:44.162Z,17.37
2017-04-02T04:07:12.295Z,17.27
2017-04-02T04:07:40.429Z,17.32
2017-04-02T04:08:08.643Z,17.37
2017-04-02T04:08:36.859Z,17.38
2017-04-02T04:09:48.115Z,17.37
2017-04-02T04:10:16.294Z,17.37
2017-04-02T04:10:44.622Z,17.32
2017-04-02T04:11:12.889Z,17.35
2017-04-02T04:11:41.121Z,17.34
2017-04-02T04:12:09.424Z,17.28
2017-04-02T04:12:37.608Z,17.25
2017-04-02T04:13:05.752Z,17.27
2017-04-02T04:13:33.883Z,17.25
2017-04-02T04:14:02.091Z,17.34
2017-04-02T04:14:30.401Z,17.31
2017-04-02T04:15:41.565Z,17.27
2017-04-02T04:16:09.741Z,17.22
2017-04-02T04:16:38.063Z,17.22
2017-04-02T04:17:06.147Z,17.25
2017-04-02T04:17:34.476Z,17.22
2017-04-02T04:18:02.693Z,17.24
2017-04-02T04:18:30.932Z,17.24
2017-04-02T04:18:59.165Z,17.27
2017-04-02T04:19:27.422Z,17.31
2017-04-02T04:19:55.697Z,17.31
2017-04-02T04:20:23.913Z,17.27
2017-04-02T04:21:35.069Z,17.31
2017-04-02T04:22:03.339Z,17.28
2017-04-02T04:22:31.666Z,17.31
2017-04-02T04:22:59.842Z,17.3
2017-04-02T04:23:28.073Z,17.31
2017-04-02T04:23:56.285Z,17.27
2017-04-02T04:24:24.435Z,17.27
2017-04-02T04:24:52.668Z,17.31
2017-04-02T04:25:20.901Z,17.35
2017-04-02T04:25:49.205Z,17.31
2017-04-02T04:26:17.333Z,17.32
2017-04-02T04:27:28.495Z,17.34
2017-04-02T04:27:56.668Z,17.31
2017-04-02T04:28:24.902Z,17.28
2017-04-02T04:28:53.169Z,17.3
2017-04-02T04:29:21.402Z,17.35
2017-04-02T04:29:49.614Z,17.35
2017-04-02T04:30:17.760Z,17.31
2017-04-02T04:30:45.987Z,17.32
2017-04-02T04:31:14.121Z,17.3
2017-04-02T04:31:42.425Z,17.35
2017-04-02T04:32:10.644Z,17.31
2017-04-02T04:33:21.900Z,17.35
2017-04-02T04:33:50.173Z,17.34
2017-04-02T04:34:18.406Z,17.3
2017-04-02T04:34:46.578Z,17.32
2017-04-02T04:35:14.904Z,17.39
2017-04-02T04:35:43.116Z,17.39
2017-04-02T04:36:11.351Z,17.35
2017-04-02T04:36:39.391Z,17.32
2017-04-02T04:37:07.714Z,17.39
2017-04-02T04:37:36.011Z,17.37
2017-04-02T04:38:04.322Z,17.37
2017-04-02T04:39:15.670Z,17.37
2017-04-02T04:39:43.849Z,17.39
2017-04-02T04:40:12.175Z,17.34
2017-04-02T04:40:40.441Z,17.37
2017-04-02T04:41:08.769Z,17.38
2017-04-02T04:41:37.070Z,17.38
2017-04-02T04:42:05.220Z,17.43
2017-04-02T04:42:33.362Z,17.37
2017-04-02T04:43:01.499Z,17.34
2017-04-02T04:43:29.802Z,17.34
2017-04-02T04:43:58.112Z,17.41
2017-04-02T04:45:09.275Z,17.27
2017-04-02T04:45:37.543Z,17.32
2017-04-02T04:46:05.771Z,17.3
2017-04-02T04:46:34.040Z,17.28
2017-04-02T04:47:02.278Z,17.31
2017-04-02T04:47:30.583Z,17.3
2017-04-02T04:47:58.726Z,17.31
2017-04-02T04:48:26.676Z,17.32
2017-04-02T04:48:54.807Z,17.22
2017-04-02T04:49:23.012Z,17.3
2017-04-02T04:49:51.322Z,17.25
2017-04-02T04:51:02.486Z,17.28
2017-04-02T04:51:30.757Z,17.22
2017-04-02T04:51:58.991Z,17.24
2017-04-02T04:52:27.168Z,17.22
2017-04-02T04:52:55.401Z,17.34
2017-04-02T04:53:23.614Z,17.22
2017-04-02T04:53:51.758Z,17.32
2017-04-02T04:54:19.892Z,17.25
2017-04-02T04:54:48.212Z,17.27
2017-04-02T04:55:16.513Z,17.22
2017-04-02T04:55:44.823Z,17.38
2017-04-02T04:56:55.979Z,17.28
2017-04-02T04:57:24.176Z,17.25
2017-04-02T04:57:52.485Z,17.32
2017-04-02T04:58:20.752Z,17.31
2017-04-02T04:58:49.080Z,17.34
2017-04-02T04:59:17.380Z,17.24
2017-04-02T04:59:45.521Z,17.35
2017-04-02T05:00:13.752Z,17.34
2017-04-02T05:00:42.075Z,17.3
2017-04-02T05:01:10.288Z,17.3
2017-04-02T05:01:38.511Z,17.28
2017-04-02T05:02:49.863Z,17.25
2017-04-02T05:03:18.042Z,17.25
2017-04-02T05:03:46.363Z,17.28
2017-04-02T05:04:14.535Z,17.19
2017-04-02T05:04:42.865Z,17.2
2017-04-02T05:05:10.987Z,17.27
2017-04-02T05:05:39.128Z,17.25
2017-04-02T05:06:07.450Z,17.19
2017-04-02T05:06:35.774Z,17.28
2017-04-02T05:07:04.074Z,17.22
2017-04-02T05:07:32.198Z,17.25
2017-04-02T05:08:43.365Z,17.34
2017-04-02T05:09:11.542Z,17.31
2017-04-02T05:09:39.863Z,17.27
2017-04-02T05:10:08.131Z,17.3
2017-04-02T05:10:36.460Z,17.24
2017-04-02T05:11:04.669Z,17.25
2017-04-02T05:11:32.812Z,17.27
2017-04-02T05:12:00.949Z,17.19
2017-04-02T05:12:29.274Z,17.2
2017-04-02T05:12:57.578Z,17.24
2017-04-02T05:13:25.884Z,17.24
2017-04-02T05:14:37.139Z,17.3
2017-04-02T05:15:05.322Z,17.25
2017-04-02T05:15:33.652Z,17.24
2017-04-02T05:16:01.919Z,17.3
2017-04-02T05:16:30.149Z,17.32
2017-04-02T05:16:58.366Z,17.25
2017-04-02T05:17:26.512Z,17.31
2017-04-02T05:17:54.557Z,17.22
2017-04-02T05:18:22.791Z,17.3
2017-04-02T05:18:50.997Z,17.27
2017-04-02T05:19:19.208Z,17.28
2017-04-02T05:20:30.375Z,17.19
2017-04-02T05:20:58.647Z,17.24
2017-04-02T05:21:26.974Z,17.27
2017-04-02T05:21:55.244Z,17.27
2017-04-02T05:22:23.472Z,17.24
2017-04-02T05:22:51.686Z,17.22
2017-04-02T05:23:20.013Z,17.22
2017-04-02T05:23:48.244Z,17.24
2017-04-02T05:24:16.567Z,17.19
2017-04-02T05:24:44.867Z,17.22
2017-04-02T05:25:13.178Z,17.27
2017-04-02T05:26:24.433Z,17.28
2017-04-02T05:26:52.701Z,17.3
2017-04-02T05:27:21.025Z,17.3
2017-04-02T05:27:49.285Z,17.22
2017-04-02T05:28:17.431Z,17.27
2017-04-02T05:28:45.737Z,17.24
2017-04-02T05:29:13.881Z,17.28
2017-04-02T05:29:42.113Z,17.24
2017-04-02T05:30:10.249Z,17.27
2017-04-02T05:30:38.462Z,17.24
2017-04-02T05:31:06.766Z,17.25
2017-04-02T05:32:17.925Z,17.25
2017-04-02T05:32:46.196Z,17.25
2017-04-02T05:33:14.431Z,17.27
2017-04-02T05:33:42.697Z,17.27
2017-04-02T05:34:11.026Z,17.22
2017-04-02T05:34:39.330Z,17.22
2017-04-02T05:35:07.569Z,17.25
2017-04-02T05:35:35.889Z,17.28
2017-04-02T05:36:04.112Z,17.22
2017-04-02T05:36:32.413Z,17.31
2017-04-02T05:37:00.727Z,17.28
2017-04-02T05:38:11.987Z,17.24
2017-04-02T05:38:40.258Z,17.3
2017-04-02T05:39:08.588Z,17.24
2017-04-02T05:39:36.761Z,17.31
2017-04-02T05:40:05.089Z,17.27
2017-04-02T05:40:33.389Z,17.24
2017-04-02T05:41:01.632Z,17.3
2017-04-02T05:41:29.768Z,17.25
2017-04-02T05:41:57.907Z,17.25
2017-04-02T05:42:26.022Z,17.25
2017-04-02T05:42:54.238Z,17.25
2017-04-02T05:44:05.581Z,17.3
2017-04-02T05:44:33.663Z,17.22
2017-04-02T05:45:01.804Z,17.2
2017-04-02T05:45:30.067Z,17.17
2017-04-02T05:45:58.394Z,17.16
2017-04-02T05:46:26.695Z,17.25
2017-04-02T05:46:54.840Z,17.17
2017-04-02T05:47:23.071Z,17.19
2017-04-02T05:47:51.338Z,17.19
2017-04-02T05:48:19.600Z,17.17
2017-04-02T05:48:47.911Z,17.22
2017-04-02T05:49:59.079Z,17.24
2017-04-02T05:50:27.257Z,17.17
2017-04-02T05:50:55.577Z,17.28
2017-04-02T05:51:23.845Z,17.27
2017-04-02T05:51:52.082Z,17.2
2017-04-02T05:52:20.299Z,17.24
2017-04-02T05:52:48.628Z,17.22
2017-04-02T05:53:16.667Z,17.24
2017-04-02T05:53:44.801Z,17.24
2017-04-02T05:54:13.105Z,17.19
2017-04-02T05:54:41.415Z,17.25
2017-04-02T05:55:52.665Z,17.17
2017-04-02T05:56:20.935Z,17.22
2017-04-02T05:56:49.258Z,17.22
2017-04-02T05:57:17.253Z,17.19
2017-04-02T05:57:45.585Z,17.24
2017-04-02T05:58:13.788Z,17.17
2017-04-02T05:58:42.027Z,17.2
2017-04-02T05:59:10.263Z,17.19
2017-04-02T05:59:38.487Z,17.2
2017-04-02T06:00:06.702Z,17.3
2017-04-02T06:00:35.005Z,17.2
2017-04-02T06:01:46.265Z,17.14
2017-04-02T06:02:14.542Z,17.2
2017-04-02T06:02:42.864Z,17.16
2017-04-02T06:03:11.042Z,17.12
2017-04-02T06:03:39.269Z,17.09
2017-04-02T06:04:07.478Z,17.13
2017-04-02T06:04:35.807Z,17.09
2017-04-02T06:05:03.943Z,17.14
2017-04-02T06:05:32.167Z,17.1
2017-04-02T06:06:00.465Z,17.14
2017-04-02T06:06:28.775Z,17.14
2017-04-02T06:07:40.025Z,17.06
2017-04-02T06:08:08.119Z,17.06
2017-04-02T06:08:36.441Z,17.1
2017-04-02T06:09:04.713Z,17.14
2017-04-02T06:09:32.946Z,17.02
2017-04-02T06:10:01.157Z,17.07
2017-04-02T06:10:29.489Z,17.12
2017-04-02T06:10:57.720Z,16.99
2017-04-02T06:11:25.949Z,17.01
2017-04-02T06:11:54.165Z,17.04
2017-04-02T06:12:22.480Z,17.04
2017-04-02T06:13:33.740Z,17.01
2017-04-02T06:14:02.011Z,17.04
2017-04-02T06:14:30.336Z,17.07
2017-04-02T06:14:58.515Z,17.1
2017-04-02T06:15:26.746Z,17.07
2017-04-02T06:15:55.049Z,17.01
2017-04-02T06:16:23.380Z,17.06
2017-04-02T06:16:51.699Z,17.07
2017-04-02T06:17:19.929Z,17.07
2017-04-02T06:17:48.231Z,16.95
2017-04-02T06:18:16.443Z,17.06
2017-04-02T06:19:27.606Z,16.95
2017-04-02T06:19:55.789Z,16.95
2017-04-02T06:20:24.114Z,16.94
2017-04-02T06:20:52.288Z,16.98
2017-04-02T06:21:20.613Z,16.98
2017-04-02T06:21:48.822Z,16.94
2017-04-02T06:22:16.784Z,17.04
2017-04-02T06:22:45.546Z,16.95
2017-04-02T06:23:13.872Z,17.01
2017-04-02T06:23:42.172Z,16.94
2017-04-02T06:24:10.485Z,16.95
2017-04-02T06:25:21.841Z,16.94
2017-04-02T06:25:50.119Z,17.02
2017-04-02T06:26:18.445Z,16.9
2017-04-02T06:26:46.618Z,16.98
2017-04-02T06:27:14.944Z,16.97
2017-04-02T06:27:43.153Z,16.98
2017-04-02T06:28:11.393Z,17.09
2017-04-02T06:28:39.529Z,16.95
2017-04-02T06:29:07.760Z,16.94
2017-04-02T06:29:35.969Z,16.98
2017-04-02T06:30:04.280Z,16.9
2017-04-02T06:31:15.446Z,16.92
2017-04-02T06:31:43.530Z,16.9
2017-04-02T06:32:11.849Z,16.92
2017-04-02T06:32:40.022Z,16.9
2017-04-02T06:33:08.351Z,16.99
2017-04-02T06:33:36.559Z,16.97
2017-04-02T06:34:04.797Z,16.95
2017-04-02T06:34:33.119Z,16.99
2017-04-02T06:35:01.345Z,16.9
2017-04-02T06:35:29.643Z,16.99
2017-04-02T06:35:57.852Z,16.98
2017-04-02T06:37:09.018Z,16.9
2017-04-02T06:37:37.288Z,16.97
2017-04-02T06:38:05.616Z,16.97
2017-04-02T06:38:33.881Z,16.95
2017-04-02T06:39:02.020Z,16.94
2017-04-02T06:39:30.138Z,16.97
2017-04-02T06:39:58.377Z,16.91
2017-04-02T06:40:26.610Z,16.98
2017-04-02T06:40:54.835Z,16.84
2017-04-02T06:41:23.135Z,16.98
2017-04-02T06:41:51.350Z,16.98
2017-04-02T06:43:02.609Z,16.87
2017-04-02T06:43:30.790Z,16.97
2017-04-02T06:43:59.119Z,16.95
2017-04-02T06:44:27.390Z,16.87
2017-04-02T06:44:55.716Z,16.92
2017-04-02T06:45:24.032Z,16.95
2017-04-02T06:45:52.078Z,16.88
2017-04-02T06:46:20.398Z,16.94
2017-04-02T06:46:48.529Z,16.97
2017-04-02T06:47:16.746Z,16.91
2017-04-02T06:47:44.867Z,16.92
2017-04-02T06:48:56.122Z,16.97
2017-04-02T06:49:24.301Z,16.9
2017-04-02T06:49:52.630Z,16.92
2017-04-02T06:50:20.802Z,16.92
2017-04-02T06:50:49.040Z,16.94
2017-04-02T06:51:17.251Z,16.95
2017-04-02T06:51:45.489Z,16.92
2017-04-02T06:52:13.719Z,16.94
2017-04-02T06:52:42.045Z,16.92
2017-04-02T06:53:10.248Z,16.91
2017-04-02T06:53:38.558Z,16.91
2017-04-02T06:54:49.718Z,16.97
2017-04-02T06:55:17.803Z,16.98
2017-04-02T06:55:46.035Z,16.99